Latest Weather Observations for Forrest

IDW60801

Issued at 5:04 pm WST Wednesday 29 March 2017 (issued every 30 minutes, with the page automatically refreshed every 10 minutes)

About weather observations | Map of weather stations | Latest weather observations for WA | Other Formats
Station Details ID: 011052 Name: FORREST Lat: -30.85 Lon: 128.11 Height: 159.0 m
Data from the previous 72 hours. | See also: Recent months at Forrest
Date/Time
WST
Temp
°C
App
Temp
°C
Dew
Point
°C
Rel
Hum
%
Delta-T
°C
Wind Press
QNH
hPa
Press
MSL
hPa
Rain since
9am
mm
Dir  Spd
km/h
Gust
km/h
Spd
kts
Gust
kts
29/05:00pm 18.4 11.1 5.6 43 6.3 S 33 46 18 25 1023.8 - 0.0
29/04:30pm 19.5 11.9 5.6 40 6.9 S 35 48 19 26 1023.3 - 0.0
29/04:00pm 20.2 12.9 5.4 38 7.3 S 33 41 18 22 1022.8 - 0.0
29/03:30pm 20.8 12.9 4.4 34 8.0 S 35 50 19 27 1022.4 - 0.0
29/03:00pm 21.6 15.0 5.9 36 7.9 S 30 48 16 26 1022.2 1021.7 0.0
29/02:30pm 21.3 14.0 7.2 40 7.3 S 35 50 19 27 1021.9 - 0.0
29/02:00pm 22.6 14.8 5.1 32 8.8 SSW 35 52 19 28 1021.6 - 0.0
29/01:30pm 22.5 14.6 4.1 30 9.0 SSW 35 59 19 32 1021.5 - 0.0
29/01:25pm 23.3 15.5 4.8 30 9.3 S 35 59 19 32 1021.5 - 0.0
29/01:00pm 22.6 15.2 6.8 36 8.2 S 35 48 19 26 1021.3 - 0.0
29/12:30pm 23.1 16.2 8.8 40 7.7 SSW 35 48 19 26 1021.2 - 0.0
29/12:00pm 22.4 15.6 9.2 43 7.1 SSW 35 46 19 25 1021.2 1020.6 0.0
29/11:30am 22.8 16.2 9.9 44 7.1 SSW 35 50 19 27 1021.3 - 0.0
29/11:00am 21.2 13.6 10.4 50 5.9 SSW 41 52 22 28 1021.4 - 0.0
29/10:30am 20.9 14.6 12.3 58 4.9 S 37 50 20 27 1021.3 - 0.0
29/10:00am 20.8 14.3 12.8 60 4.6 SSW 39 59 21 32 1021.0 - 0.0
29/09:30am 20.7 14.0 12.4 59 4.7 SSW 39 50 21 27 1020.9 - 0.0
29/09:00am 20.5 15.1 12.7 61 4.4 S 33 48 18 26 1020.7 1020.1 0.0
29/08:30am 19.8 13.9 13.7 68 3.5 S 37 50 20 27 1020.6 - 0.0
29/08:00am 19.1 13.3 13.9 72 3.0 SSW 37 46 20 25 1020.4 - 0.0
29/07:30am 19.3 14.8 13.7 70 3.2 SSW 30 43 16 23 1020.1 - 0.0
29/07:00am 17.1 14.9 13.4 79 2.1 SSW 17 24 9 13 1019.8 - 0.0
29/06:30am 15.5 13.8 12.6 83 1.6 SSW 13 17 7 9 1019.4 - 0.0
29/06:00am 13.9 11.8 11.1 83 1.5 SW 13 13 7 7 1019.0 1018.4 0.0
29/05:30am 13.7 11.5 10.7 82 1.6 SSW 13 15 7 8 1018.6 - 0.0
29/05:00am 14.0 11.7 10.6 80 1.8 S 13 15 7 8 1018.0 - 0.0
29/04:30am 13.3 10.4 9.7 79 1.9 SSW 15 17 8 9 1017.5 - 0.0
29/04:00am 13.3 10.3 9.2 76 2.1 SSW 15 19 8 10 1017.0 - 0.0
29/03:30am 12.8 9.1 8.1 73 2.3 SSW 17 20 9 11 1016.5 - 0.0
29/03:00am 12.9 10.0 8.2 73 2.3 SSW 13 22 7 12 1015.6 1015.0 0.0
29/02:30am 13.0 12.7 8.7 75 2.2 CALM 0 2 0 1 1015.0 - 0.0
29/02:00am 13.3 11.9 9.0 75 2.2 E 6 7 3 4 1014.9 - 0.0
29/01:30am 13.5 11.9 8.8 73 2.4 E 7 9 4 5 1015.0 - 0.0
29/01:00am 14.0 12.5 9.0 72 2.6 E 7 11 4 6 1014.9 - 0.0
29/12:30am 14.2 11.8 8.8 70 2.8 SE 11 13 6 7 1014.8 - 0.0
29/12:00am 14.5 12.2 8.9 69 2.9 SE 11 11 6 6 1014.9 1014.3 0.0
 
Date/Time
WST
Temp
°C
App
Temp
°C
Dew
Point
°C
Rel
Hum
%
Delta-T
°C
Wind Press
QNH
hPa
Press
MSL
hPa
Rain since
9am
mm
Dir  Spd
km/h
Gust
km/h
Spd
kts
Gust
kts
28/11:30pm 15.1 13.1 8.8 66 3.2 SE 9 11 5 6 1015.0 - 0.0
28/11:00pm 15.5 13.1 8.5 63 3.6 SE 11 13 6 7 1014.8 - 0.0
28/10:30pm 16.3 13.9 8.8 61 3.9 SSE 11 15 6 8 1014.8 - 0.0
28/10:00pm 16.4 13.4 7.9 57 4.3 SE 13 15 7 8 1014.8 - 0.0
28/09:30pm 17.1 14.3 6.9 51 5.1 SSE 11 13 6 7 1014.9 - 0.0
28/09:00pm 17.9 15.0 6.4 47 5.7 SE 11 15 6 8 1014.9 1014.3 0.0
28/08:30pm 19.9 16.1 4.0 35 7.7 S 13 17 7 9 1014.6 - 0.0
28/08:00pm 19.8 15.8 3.1 33 7.9 SSW 13 13 7 7 1014.5 - 0.0
28/07:30pm 20.1 16.3 2.0 30 8.4 SW 11 15 6 8 1014.4 - 0.0
28/07:00pm 22.6 19.2 4.2 30 9.1 WNW 11 17 6 9 1014.1 - 0.0
28/06:30pm 23.1 19.6 3.6 28 9.5 NW 11 11 6 6 1013.8 - 0.0
28/06:00pm 24.3 21.6 3.6 26 10.2 NW 7 9 4 5 1013.6 1013.0 0.0
28/05:30pm 26.3 24.6 4.1 24 11.2 NW 2 7 1 4 1013.2 - 0.0
28/05:00pm 27.9 24.5 4.2 22 12.1 WSW 11 15 6 8 1013.2 - 0.0
28/04:30pm 27.9 25.4 4.9 23 11.9 NW 7 13 4 7 1013.3 - 0.0
28/04:00pm 28.1 25.8 5.0 23 12.0 NW 6 15 3 8 1013.0 - 0.0
28/03:30pm 28.8 25.3 5.6 23 12.2 W 13 20 7 11 1013.2 - 0.0
28/03:00pm 28.7 25.6 5.5 23 12.2 NNW 11 19 6 10 1013.3 1012.7 0.0
28/02:30pm 28.4 25.4 5.9 24 11.9 W 11 20 6 11 1013.7 - 0.0
28/02:00pm 27.7 24.3 5.9 25 11.4 NW 13 24 7 13 1014.1 - 0.0
28/01:30pm 27.0 23.2 5.9 26 11.0 WSW 15 22 8 12 1014.5 - 0.0
28/01:00pm 26.8 23.6 6.8 28 10.6 N 13 20 7 11 1014.9 - 0.0
28/12:30pm 26.9 24.0 6.3 27 10.8 WNW 11 19 6 10 1015.4 - 0.0
28/12:00pm 26.3 23.3 7.8 31 9.9 N 13 24 7 13 1016.0 1015.4 0.0
28/11:30am 25.4 22.4 7.5 32 9.5 NW 13 28 7 15 1016.5 - 0.0
28/11:00am 25.1 22.8 9.0 36 8.8 N 11 26 6 14 1017.2 - 0.0
28/10:30am 23.5 21.1 9.9 42 7.5 NNE 13 22 7 12 1017.6 - 0.0
28/10:00am 22.5 20.1 10.0 45 6.9 N 13 19 7 10 1018.1 - 0.0
28/09:30am 22.2 20.0 10.7 48 6.4 NE 13 19 7 10 1018.9 - 0.0
28/09:00am 20.8 19.1 11.2 54 5.3 NNE 11 17 6 9 1019.3 1018.7 0.0
28/08:30am 20.4 18.2 12.1 59 4.7 NNE 15 17 8 9 1019.4 - 0.0
28/08:00am 18.8 16.6 12.1 65 3.7 NNE 15 20 8 11 1019.5 - 0.0
28/07:30am 17.4 15.8 12.9 75 2.5 NE 13 15 7 8 1019.4 - 0.0
28/07:00am 14.8 13.5 11.2 79 1.9 NNE 9 11 5 6 1019.2 - 0.0
28/06:30am 12.1 11.0 9.8 86 1.2 NNE 6 9 3 5 1019.0 - 0.0
28/06:00am 10.2 9.9 8.6 90 0.8 CALM 0 0 0 0 1018.8 1018.2 0.0
28/05:30am 9.8 9.4 8.1 89 0.8 CALM 0 0 0 0 1018.7 - 0.0
28/05:00am 9.9 9.4 7.7 86 1.1 CALM 0 0 0 0 1018.6 - 0.0
28/04:30am 9.9 8.7 6.6 80 1.6 NE 2 6 1 3 1018.4 - 0.0
28/04:00am 10.5 10.1 8.3 86 1.1 CALM 0 0 0 0 1018.0 - 0.0
28/03:30am 10.8 10.4 8.2 84 1.3 CALM 0 0 0 0 1018.1 - 0.0
28/03:00am 11.2 10.9 8.6 84 1.3 CALM 0 4 0 2 1018.1 1017.6 0.0
28/02:30am 11.9 10.7 9.5 85 1.2 ESE 6 6 3 3 1018.3 - 0.0
28/02:00am 12.1 10.8 9.1 82 1.5 E 6 7 3 4 1018.4 - 0.0
28/01:30am 12.5 10.7 9.3 81 1.6 ESE 9 11 5 6 1018.4 - 0.0
28/01:00am 12.9 11.1 9.5 80 1.7 ESE 9 11 5 6 1018.6 - 0.0
28/12:30am 12.7 10.7 8.8 77 2.0 E 9 9 5 5 1018.6 - 0.0
28/12:00am 12.9 10.9 8.8 76 2.1 SE 9 11 5 6 1018.9 1018.3 0.0
 
Date/Time
WST
Temp
°C
App
Temp
°C
Dew
Point
°C
Rel
Hum
%
Delta-T
°C
Wind Press
QNH
hPa
Press
MSL
hPa
Rain since
9am
mm
Dir  Spd
km/h
Gust
km/h
Spd
kts
Gust
kts
27/11:30pm 13.1 11.1 8.8 75 2.2 SE 9 11 5 6 1019.0 - 0.0
27/11:00pm 13.6 11.3 9.1 74 2.3 SE 11 11 6 6 1018.9 - 0.0
27/10:30pm 14.5 12.7 9.5 72 2.6 SSE 9 13 5 7 1019.3 - 0.0
27/10:00pm 15.3 13.2 9.9 70 2.8 SSE 11 13 6 7 1019.4 - 0.0
27/09:30pm 16.2 13.9 10.3 68 3.1 SSE 13 17 7 9 1019.5 - 0.0
27/09:00pm 16.9 14.2 10.3 65 3.5 SE 15 20 8 11 1019.6 1019.0 0.0
27/08:30pm 17.7 14.2 10.3 62 4.0 SE 19 28 10 15 1019.4 - 0.0
27/08:00pm 18.4 14.9 10.3 59 4.4 SSE 19 28 10 15 1019.2 - 0.0
27/07:30pm 19.3 15.6 10.3 56 4.9 SSE 20 30 11 16 1018.9 - 0.0
27/07:00pm 19.9 16.8 7.3 44 6.5 S 13 15 7 8 1018.4 - 0.0
27/06:30pm 20.8 17.9 6.7 40 7.2 S 11 15 6 8 1018.3 - 0.0
27/06:00pm 22.3 19.0 6.5 36 8.1 SSW 13 15 7 8 1017.8 1017.3 0.0
27/05:30pm 23.7 20.0 6.5 33 8.9 SSW 15 20 8 11 1017.6 - 0.0
27/05:00pm 24.6 21.5 5.4 29 9.8 S 11 15 6 8 1017.4 - 0.0
27/04:30pm 25.1 21.6 5.3 28 10.1 S 13 17 7 9 1017.3 - 0.0
27/04:00pm 25.5 21.9 5.1 27 10.4 S 13 20 7 11 1017.4 - 0.0
27/03:30pm 26.0 22.9 5.6 27 10.5 S 11 19 6 10 1017.4 - 0.0
27/03:00pm 26.3 22.1 5.8 27 10.6 S 17 26 9 14 1017.5 1017.0 0.0
27/02:30pm 25.8 22.2 4.9 26 10.7 SSW 13 19 7 10 1017.6 - 0.0
27/02:00pm 25.3 21.4 5.5 28 10.2 S 15 28 8 15 1017.8 - 0.0
27/01:30pm 25.8 22.8 5.9 28 10.3 SSE 11 20 6 11 1018.0 - 0.0
27/01:00pm 25.7 21.7 4.8 26 10.6 SW 15 22 8 12 1018.5 - 0.0
27/12:30pm 25.2 21.9 4.3 26 10.5 SSW 11 26 6 14 1019.0 - 0.0
27/12:00pm 24.5 20.3 3.8 26 10.2 SSW 15 26 8 14 1019.6 1019.0 0.0
27/11:30am 24.1 19.7 5.0 29 9.7 S 17 30 9 16 1020.0 - 0.0
27/11:00am 22.9 18.1 4.4 30 9.2 SW 19 35 10 19 1020.4 - 0.0
27/10:30am 23.2 18.1 6.0 33 8.8 SW 22 30 12 16 1020.7 - 0.0
27/10:00am 22.1 16.4 6.7 37 7.9 SSW 26 33 14 18 1020.7 - 0.0
27/09:30am 21.0 14.5 8.0 43 6.8 SSW 32 43 17 23 1020.6 - 0.0
27/09:00am 20.5 14.2 8.8 47 6.2 S 32 43 17 23 1020.7 1020.1 0.0
27/08:30am 19.6 14.2 10.9 57 4.8 SSW 30 39 16 21 1020.7 - 0.0
27/08:00am 18.8 14.3 11.4 62 4.1 SSW 26 37 14 20 1020.6 - 0.0
27/07:30am 18.0 14.4 12.0 68 3.3 SSW 22 30 12 16 1020.4 - 0.0
27/07:00am 16.9 14.2 11.8 72 2.8 SSW 17 22 9 12 1019.9 - 0.0
27/06:30am 15.1 13.5 11.7 80 1.8 SW 11 13 6 7 1019.8 - 0.0
27/06:00am 14.2 11.8 11.4 83 1.5 SW 15 17 8 9 1019.5 1018.9 0.0
27/05:30am 13.8 10.9 11.0 83 1.5 SW 17 19 9 10 1019.0 - 0.0
27/05:00am 14.1 11.2 11.1 82 1.6 SW 17 19 9 10 1018.9 - 0.0
27/04:30am 14.2 11.7 11.2 82 1.6 WSW 15 17 8 9 1018.5 - 0.0
27/04:00am 14.1 12.2 10.5 79 1.9 SW 11 13 6 7 1017.9 - 0.0
27/03:30am 15.0 13.6 10.8 76 2.2 SW 9 9 5 5 1017.5 - 0.0
27/03:00am 15.6 14.2 11.0 74 2.5 SSW 9 11 5 6 1017.2 1016.7 0.0
27/02:30am 16.2 15.3 11.4 73 2.6 S 7 9 4 5 1016.8 - 0.0
27/02:00am 16.9 15.7 11.6 71 2.9 S 9 11 5 6 1016.7 - 0.0
27/01:30am 17.5 15.6 11.8 69 3.1 S 13 17 7 9 1016.7 - 0.0
27/01:00am 18.4 15.2 11.9 66 3.6 S 20 28 11 15 1016.8 - 0.0
27/12:30am 18.4 13.8 12.4 68 3.4 S 28 33 15 18 1016.5 - 0.0
27/12:00am 18.5 15.9 13.1 71 3.1 S 19 30 10 16 1016.2 1015.6 0.0
 
Date/Time
WST
Temp
°C
App
Temp
°C
Dew
Point
°C
Rel
Hum
%
Delta-T
°C
Wind Press
QNH
hPa
Press
MSL
hPa
Rain since
9am
mm
Dir  Spd
km/h
Gust
km/h
Spd
kts
Gust
kts
26/11:30pm 18.2 15.6 13.7 75 2.6 S 20 28 11 15 1015.9 - 0.0
26/11:00pm 18.4 15.3 13.5 73 2.8 S 22 30 12 16 1015.8 - 0.0
26/10:30pm 18.8 14.4 14.1 74 2.7 S 30 41 16 22 1015.5 - 0.0
26/10:00pm 19.3 13.9 15.0 76 2.5 S 37 48 20 26 1015.0 - 0.0
26/09:30pm 19.7 14.9 15.6 77 2.4 S 35 46 19 25 1014.4 - 0.0
26/09:00pm 20.2 14.9 15.2 73 3.0 S 37 50 20 27 1013.9 1013.3 0.0
26/08:36pm 20.6 15.2 14.9 70 3.4 S 37 57 20 31 1013.5 - 0.0
26/08:30pm 20.8 15.7 14.9 69 3.5 S 35 48 19 26 1013.4 - 0.0
26/08:00pm 22.2 17.7 18.2 78 2.5 S 39 52 21 28 1012.7 - 0.0
26/07:41pm 24.0 18.6 18.0 69 3.8 S 43 56 23 30 1012.0 - 0.0
26/07:30pm 26.6 25.4 17.4 57 5.8 SW 20 28 11 15 1011.5 - 0.0
26/07:00pm 27.2 24.4 17.4 55 6.2 SW 28 35 15 19 1010.8 - 0.0
26/06:38pm 27.8 25.0 17.3 52 6.6 SW 28 46 15 25 1010.6 - 0.0
26/06:30pm 28.3 26.2 16.2 47 7.5 WSW 22 30 12 16 1010.3 - 0.0
26/06:00pm 28.6 26.9 17.2 50 7.2 WSW 22 30 12 16 1009.7 1009.1 0.0
26/05:30pm 29.3 25.8 17.5 49 7.5 WSW 32 39 17 21 1009.1 - 0.0

Other Formats:

Comma delimited format used in spreadsheet applications
http://www.bom.gov.au/fwo/IDW60801/IDW60801.95646.axf

JavaScript Object Notation format (JSON) in row-major order
http://www.bom.gov.au/fwo/IDW60801/IDW60801.95646.json